sensor_id;sensor_type;location;lat;lon;timestamp;P1;durP1;ratioP1;P2;durP2;ratioP2
12846;SDS011;6492;48.128;8.320;2024-01-25T00:01:48;5.57;;;1.50;;
12846;SDS011;6492;48.128;8.320;2024-01-25T00:05:50;8.03;;;1.93;;
12846;SDS011;6492;48.128;8.320;2024-01-25T00:09:52;6.37;;;1.80;;
12846;SDS011;6492;48.128;8.320;2024-01-25T00:13:53;7.30;;;1.83;;
12846;SDS011;6492;48.128;8.320;2024-01-25T00:17:57;7.00;;;2.37;;
12846;SDS011;6492;48.128;8.320;2024-01-25T00:22:00;3.07;;;2.00;;
12846;SDS011;6492;48.128;8.320;2024-01-25T00:26:02;5.87;;;2.00;;
12846;SDS011;6492;48.128;8.320;2024-01-25T00:30:04;6.97;;;2.33;;
12846;SDS011;6492;48.128;8.320;2024-01-25T00:34:09;7.63;;;2.17;;
12846;SDS011;6492;48.128;8.320;2024-01-25T00:38:11;3.77;;;1.60;;
12846;SDS011;6492;48.128;8.320;2024-01-25T00:42:13;3.30;;;1.80;;
12846;SDS011;6492;48.128;8.320;2024-01-25T00:46:16;5.83;;;1.80;;
12846;SDS011;6492;48.128;8.320;2024-01-25T00:50:20;4.90;;;1.70;;
12846;SDS011;6492;48.128;8.320;2024-01-25T00:54:24;5.50;;;1.97;;
12846;SDS011;6492;48.128;8.320;2024-01-25T00:58:26;6.40;;;2.23;;
12846;SDS011;6492;48.128;8.320;2024-01-25T01:02:29;7.67;;;2.20;;
12846;SDS011;6492;48.128;8.320;2024-01-25T01:06:38;4.00;;;1.60;;
12846;SDS011;6492;48.128;8.320;2024-01-25T01:10:40;5.97;;;1.80;;
12846;SDS011;6492;48.128;8.320;2024-01-25T01:14:41;6.67;;;1.90;;
12846;SDS011;6492;48.128;8.320;2024-01-25T01:18:43;5.83;;;2.00;;
12846;SDS011;6492;48.128;8.320;2024-01-25T01:22:47;3.83;;;1.60;;
12846;SDS011;6492;48.128;8.320;2024-01-25T01:26:49;5.27;;;1.90;;
12846;SDS011;6492;48.128;8.320;2024-01-25T01:30:51;5.10;;;1.73;;
12846;SDS011;6492;48.128;8.320;2024-01-25T01:34:53;4.67;;;1.40;;
12846;SDS011;6492;48.128;8.320;2024-01-25T01:38:56;4.73;;;1.63;;
12846;SDS011;6492;48.128;8.320;2024-01-25T01:42:58;4.13;;;1.40;;
12846;SDS011;6492;48.128;8.320;2024-01-25T01:47:00;2.07;;;1.20;;
12846;SDS011;6492;48.128;8.320;2024-01-25T01:51:03;1.03;;;0.87;;
12846;SDS011;6492;48.128;8.320;2024-01-25T01:55:07;1.87;;;1.17;;
12846;SDS011;6492;48.128;8.320;2024-01-25T01:59:09;2.80;;;1.00;;
12846;SDS011;6492;48.128;8.320;2024-01-25T02:03:17;3.10;;;0.90;;
12846;SDS011;6492;48.128;8.320;2024-01-25T02:07:19;1.40;;;0.77;;
12846;SDS011;6492;48.128;8.320;2024-01-25T02:11:22;2.33;;;0.80;;
12846;SDS011;6492;48.128;8.320;2024-01-25T02:15:24;1.37;;;0.83;;
12846;SDS011;6492;48.128;8.320;2024-01-25T02:19:26;1.00;;;0.87;;
12846;SDS011;6492;48.128;8.320;2024-01-25T02:23:29;1.17;;;0.90;;
12846;SDS011;6492;48.128;8.320;2024-01-25T02:27:31;1.70;;;0.90;;
12846;SDS011;6492;48.128;8.320;2024-01-25T02:31:38;2.37;;;0.60;;
12846;SDS011;6492;48.128;8.320;2024-01-25T02:35:40;0.50;;;0.50;;
12846;SDS011;6492;48.128;8.320;2024-01-25T02:39:43;0.50;;;0.40;;
12846;SDS011;6492;48.128;8.320;2024-01-25T02:43:45;0.57;;;0.40;;
12846;SDS011;6492;48.128;8.320;2024-01-25T02:47:46;0.60;;;0.50;;
12846;SDS011;6492;48.128;8.320;2024-01-25T02:51:49;1.07;;;0.30;;
12846;SDS011;6492;48.128;8.320;2024-01-25T02:55:52;0.30;;;0.30;;
12846;SDS011;6492;48.128;8.320;2024-01-25T02:59:53;0.70;;;0.30;;
12846;SDS011;6492;48.128;8.320;2024-01-25T03:03:55;0.87;;;0.60;;
12846;SDS011;6492;48.128;8.320;2024-01-25T03:07:57;1.83;;;0.70;;
12846;SDS011;6492;48.128;8.320;2024-01-25T03:12:00;1.23;;;0.90;;
12846;SDS011;6492;48.128;8.320;2024-01-25T03:16:02;2.90;;;0.77;;
12846;SDS011;6492;48.128;8.320;2024-01-25T03:20:04;0.70;;;0.67;;
12846;SDS011;6492;48.128;8.320;2024-01-25T03:24:07;2.67;;;0.73;;
12846;SDS011;6492;48.128;8.320;2024-01-25T03:28:10;1.87;;;0.50;;
12846;SDS011;6492;48.128;8.320;2024-01-25T03:32:13;0.80;;;0.50;;
12846;SDS011;6492;48.128;8.320;2024-01-25T03:36:15;0.57;;;0.57;;
12846;SDS011;6492;48.128;8.320;2024-01-25T03:40:17;1.43;;;0.40;;
12846;SDS011;6492;48.128;8.320;2024-01-25T03:44:20;0.40;;;0.30;;
12846;SDS011;6492;48.128;8.320;2024-01-25T03:48:22;0.60;;;0.40;;
12846;SDS011;6492;48.128;8.320;2024-01-25T03:52:24;1.80;;;0.40;;
12846;SDS011;6492;48.128;8.320;2024-01-25T03:56:25;0.40;;;0.40;;
12846;SDS011;6492;48.128;8.320;2024-01-25T04:00:29;3.33;;;0.60;;
12846;SDS011;6492;48.128;8.320;2024-01-25T04:04:31;2.93;;;0.77;;
12846;SDS011;6492;48.128;8.320;2024-01-25T04:08:32;3.70;;;1.20;;
12846;SDS011;6492;48.128;8.320;2024-01-25T04:12:34;3.13;;;1.07;;
12846;SDS011;6492;48.128;8.320;2024-01-25T04:16:38;3.03;;;1.10;;
12846;SDS011;6492;48.128;8.320;2024-01-25T04:20:43;2.13;;;0.77;;
12846;SDS011;6492;48.128;8.320;2024-01-25T04:24:45;2.27;;;0.73;;
12846;SDS011;6492;48.128;8.320;2024-01-25T04:28:48;1.13;;;0.60;;
12846;SDS011;6492;48.128;8.320;2024-01-25T04:32:51;1.63;;;0.60;;
12846;SDS011;6492;48.128;8.320;2024-01-25T04:36:53;2.03;;;0.83;;
12846;SDS011;6492;48.128;8.320;2024-01-25T04:40:55;3.80;;;0.97;;
12846;SDS011;6492;48.128;8.320;2024-01-25T04:44:57;4.10;;;1.13;;
12846;SDS011;6492;48.128;8.320;2024-01-25T04:49:00;2.17;;;1.27;;
12846;SDS011;6492;48.128;8.320;2024-01-25T04:53:02;4.47;;;1.40;;
12846;SDS011;6492;48.128;8.320;2024-01-25T04:57:04;1.83;;;1.20;;
12846;SDS011;6492;48.128;8.320;2024-01-25T05:01:06;4.03;;;1.13;;
12846;SDS011;6492;48.128;8.320;2024-01-25T05:05:09;6.17;;;1.10;;
12846;SDS011;6492;48.128;8.320;2024-01-25T05:09:11;1.43;;;0.90;;
12846;SDS011;6492;48.128;8.320;2024-01-25T05:13:14;3.67;;;1.00;;
12846;SDS011;6492;48.128;8.320;2024-01-25T05:17:16;2.10;;;0.83;;
12846;SDS011;6492;48.128;8.320;2024-01-25T05:21:19;2.20;;;1.00;;
12846;SDS011;6492;48.128;8.320;2024-01-25T05:25:21;2.30;;;0.60;;
12846;SDS011;6492;48.128;8.320;2024-01-25T05:29:23;1.53;;;0.60;;
12846;SDS011;6492;48.128;8.320;2024-01-25T05:33:24;2.33;;;1.00;;
12846;SDS011;6492;48.128;8.320;2024-01-25T05:37:27;3.60;;;1.10;;
12846;SDS011;6492;48.128;8.320;2024-01-25T05:41:30;2.53;;;0.80;;
12846;SDS011;6492;48.128;8.320;2024-01-25T05:45:32;1.47;;;0.60;;
12846;SDS011;6492;48.128;8.320;2024-01-25T05:49:33;1.50;;;1.13;;
12846;SDS011;6492;48.128;8.320;2024-01-25T05:53:37;3.57;;;0.83;;
12846;SDS011;6492;48.128;8.320;2024-01-25T05:57:39;1.33;;;1.17;;
12846;SDS011;6492;48.128;8.320;2024-01-25T06:01:41;1.37;;;0.73;;
12846;SDS011;6492;48.128;8.320;2024-01-25T06:05:42;2.47;;;0.80;;
12846;SDS011;6492;48.128;8.320;2024-01-25T06:09:46;0.73;;;0.73;;
12846;SDS011;6492;48.128;8.320;2024-01-25T06:13:49;1.57;;;0.90;;
12846;SDS011;6492;48.128;8.320;2024-01-25T06:17:51;4.60;;;1.10;;
12846;SDS011;6492;48.128;8.320;2024-01-25T06:21:53;0.60;;;0.50;;
12846;SDS011;6492;48.128;8.320;2024-01-25T06:25:56;1.00;;;1.00;;
12846;SDS011;6492;48.128;8.320;2024-01-25T06:29:57;0.50;;;0.43;;
12846;SDS011;6492;48.128;8.320;2024-01-25T06:33:59;0.30;;;0.30;;
12846;SDS011;6492;48.128;8.320;2024-01-25T06:38:01;0.40;;;0.40;;
12846;SDS011;6492;48.128;8.320;2024-01-25T06:42:05;0.40;;;0.30;;
12846;SDS011;6492;48.128;8.320;2024-01-25T06:46:07;2.90;;;0.50;;
12846;SDS011;6492;48.128;8.320;2024-01-25T06:50:09;1.63;;;0.50;;
12846;SDS011;6492;48.128;8.320;2024-01-25T06:54:11;1.17;;;0.63;;
12846;SDS011;6492;48.128;8.320;2024-01-25T06:58:14;1.03;;;0.57;;
12846;SDS011;6492;48.128;8.320;2024-01-25T07:02:16;1.17;;;0.60;;
12846;SDS011;6492;48.128;8.320;2024-01-25T07:06:20;1.23;;;1.20;;
12846;SDS011;6492;48.128;8.320;2024-01-25T07:10:22;0.87;;;0.60;;
12846;SDS011;6492;48.128;8.320;2024-01-25T07:14:26;0.93;;;0.67;;
12846;SDS011;6492;48.128;8.320;2024-01-25T07:18:28;0.40;;;0.40;;
12846;SDS011;6492;48.128;8.320;2024-01-25T07:22:31;0.73;;;0.50;;
12846;SDS011;6492;48.128;8.320;2024-01-25T07:26:33;1.17;;;0.60;;
12846;SDS011;6492;48.128;8.320;2024-01-25T07:30:38;1.73;;;0.97;;
12846;SDS011;6492;48.128;8.320;2024-01-25T07:34:39;2.17;;;0.70;;
12846;SDS011;6492;48.128;8.320;2024-01-25T07:38:41;1.73;;;0.80;;
12846;SDS011;6492;48.128;8.320;2024-01-25T07:42:43;1.53;;;1.00;;
12846;SDS011;6492;48.128;8.320;2024-01-25T07:46:46;0.77;;;0.47;;
12846;SDS011;6492;48.128;8.320;2024-01-25T07:50:48;1.90;;;0.97;;
12846;SDS011;6492;48.128;8.320;2024-01-25T07:54:50;2.67;;;1.00;;
12846;SDS011;6492;48.128;8.320;2024-01-25T07:58:53;1.13;;;0.70;;
12846;SDS011;6492;48.128;8.320;2024-01-25T08:02:56;2.07;;;0.60;;
12846;SDS011;6492;48.128;8.320;2024-01-25T08:06:58;0.40;;;0.40;;
12846;SDS011;6492;48.128;8.320;2024-01-25T08:10:59;1.13;;;0.57;;
12846;SDS011;6492;48.128;8.320;2024-01-25T08:15:01;1.10;;;0.63;;
12846;SDS011;6492;48.128;8.320;2024-01-25T08:19:05;1.10;;;0.87;;
12846;SDS011;6492;48.128;8.320;2024-01-25T08:23:06;0.47;;;0.40;;
12846;SDS011;6492;48.128;8.320;2024-01-25T08:27:09;0.70;;;0.40;;
12846;SDS011;6492;48.128;8.320;2024-01-25T08:31:11;1.03;;;0.70;;
12846;SDS011;6492;48.128;8.320;2024-01-25T08:35:14;0.33;;;0.30;;
12846;SDS011;6492;48.128;8.320;2024-01-25T08:39:16;0.40;;;0.40;;
12846;SDS011;6492;48.128;8.320;2024-01-25T08:43:18;2.57;;;0.57;;
12846;SDS011;6492;48.128;8.320;2024-01-25T08:47:20;1.03;;;0.70;;
12846;SDS011;6492;48.128;8.320;2024-01-25T08:51:23;2.60;;;1.00;;
12846;SDS011;6492;48.128;8.320;2024-01-25T08:55:24;11.70;;;6.73;;
12846;SDS011;6492;48.128;8.320;2024-01-25T08:59:26;2.37;;;1.10;;
12846;SDS011;6492;48.128;8.320;2024-01-25T09:03:30;0.90;;;0.80;;
12846;SDS011;6492;48.128;8.320;2024-01-25T09:07:33;0.80;;;0.63;;
12846;SDS011;6492;48.128;8.320;2024-01-25T09:11:35;1.07;;;0.80;;
12846;SDS011;6492;48.128;8.320;2024-01-25T09:15:37;1.77;;;0.80;;
12846;SDS011;6492;48.128;8.320;2024-01-25T09:19:39;0.90;;;0.70;;
12846;SDS011;6492;48.128;8.320;2024-01-25T09:23:42;4.30;;;1.17;;
12846;SDS011;6492;48.128;8.320;2024-01-25T09:27:44;1.90;;;0.80;;
12846;SDS011;6492;48.128;8.320;2024-01-25T09:31:46;1.03;;;0.77;;
12846;SDS011;6492;48.128;8.320;2024-01-25T09:35:48;0.50;;;0.40;;
12846;SDS011;6492;48.128;8.320;2024-01-25T09:39:52;1.47;;;0.50;;
12846;SDS011;6492;48.128;8.320;2024-01-25T09:43:54;1.40;;;0.63;;
12846;SDS011;6492;48.128;8.320;2024-01-25T09:47:56;1.27;;;0.90;;
12846;SDS011;6492;48.128;8.320;2024-01-25T09:51:58;1.60;;;1.17;;
12846;SDS011;6492;48.128;8.320;2024-01-25T09:56:05;1.17;;;1.00;;
12846;SDS011;6492;48.128;8.320;2024-01-25T10:00:14;2.90;;;1.30;;
12846;SDS011;6492;48.128;8.320;2024-01-25T10:04:18;2.97;;;1.60;;
12846;SDS011;6492;48.128;8.320;2024-01-25T10:08:22;1.47;;;1.33;;
12846;SDS011;6492;48.128;8.320;2024-01-25T10:12:25;2.07;;;1.13;;
12846;SDS011;6492;48.128;8.320;2024-01-25T10:16:27;2.53;;;1.03;;
12846;SDS011;6492;48.128;8.320;2024-01-25T10:20:30;1.37;;;1.10;;
12846;SDS011;6492;48.128;8.320;2024-01-25T10:24:32;3.20;;;1.50;;
12846;SDS011;6492;48.128;8.320;2024-01-25T10:28:36;7.27;;;3.40;;
12846;SDS011;6492;48.128;8.320;2024-01-25T10:32:38;3.60;;;2.30;;
12846;SDS011;6492;48.128;8.320;2024-01-25T10:36:41;2.97;;;1.40;;
12846;SDS011;6492;48.128;8.320;2024-01-25T10:40:44;0.77;;;0.50;;
12846;SDS011;6492;48.128;8.320;2024-01-25T10:44:49;1.60;;;1.30;;
12846;SDS011;6492;48.128;8.320;2024-01-25T10:48:51;0.93;;;0.80;;
12846;SDS011;6492;48.128;8.320;2024-01-25T10:57:03;0.67;;;0.67;;
12846;SDS011;6492;48.128;8.320;2024-01-25T11:01:09;1.80;;;0.80;;
12846;SDS011;6492;48.128;8.320;2024-01-25T11:05:12;0.80;;;0.80;;
12846;SDS011;6492;48.128;8.320;2024-01-25T11:09:16;0.20;;;0.20;;
12846;SDS011;6492;48.128;8.320;2024-01-25T11:13:23;1.70;;;0.60;;
12846;SDS011;6492;48.128;8.320;2024-01-25T11:17:28;1.27;;;1.10;;
12846;SDS011;6492;48.128;8.320;2024-01-25T11:25:50;0.50;;;0.50;;
12846;SDS011;6492;48.128;8.320;2024-01-25T11:29:56;1.37;;;1.27;;
12846;SDS011;6492;48.128;8.320;2024-01-25T11:33:59;1.40;;;1.30;;
12846;SDS011;6492;48.128;8.320;2024-01-25T11:38:02;0.80;;;0.80;;
12846;SDS011;6492;48.128;8.320;2024-01-25T11:42:04;1.00;;;1.00;;
12846;SDS011;6492;48.128;8.320;2024-01-25T11:46:07;0.50;;;0.50;;
12846;SDS011;6492;48.128;8.320;2024-01-25T11:50:11;0.80;;;0.80;;
12846;SDS011;6492;48.128;8.320;2024-01-25T11:54:14;0.43;;;0.43;;
12846;SDS011;6492;48.128;8.320;2024-01-25T11:58:15;0.30;;;0.30;;
12846;SDS011;6492;48.128;8.320;2024-01-25T12:02:18;1.17;;;1.07;;
12846;SDS011;6492;48.128;8.320;2024-01-25T12:06:22;1.00;;;0.73;;
12846;SDS011;6492;48.128;8.320;2024-01-25T12:10:25;0.40;;;0.40;;
12846;SDS011;6492;48.128;8.320;2024-01-25T12:14:32;1.07;;;0.60;;
12846;SDS011;6492;48.128;8.320;2024-01-25T12:18:35;0.50;;;0.50;;
12846;SDS011;6492;48.128;8.320;2024-01-25T12:22:49;0.63;;;0.63;;
12846;SDS011;6492;48.128;8.320;2024-01-25T12:26:52;1.13;;;0.40;;
12846;SDS011;6492;48.128;8.320;2024-01-25T12:30:56;0.80;;;0.80;;
12846;SDS011;6492;48.128;8.320;2024-01-25T12:35:04;0.30;;;0.30;;
12846;SDS011;6492;48.128;8.320;2024-01-25T12:39:09;0.40;;;0.40;;
12846;SDS011;6492;48.128;8.320;2024-01-25T12:43:13;0.70;;;0.70;;
12846;SDS011;6492;48.128;8.320;2024-01-25T12:47:16;0.30;;;0.30;;
12846;SDS011;6492;48.128;8.320;2024-01-25T12:51:18;0.60;;;0.60;;
12846;SDS011;6492;48.128;8.320;2024-01-25T12:55:22;0.70;;;0.70;;
12846;SDS011;6492;48.128;8.320;2024-01-25T12:59:24;0.87;;;0.67;;
12846;SDS011;6492;48.128;8.320;2024-01-25T13:03:25;0.40;;;0.40;;
12846;SDS011;6492;48.128;8.320;2024-01-25T13:07:27;0.40;;;0.40;;
12846;SDS011;6492;48.128;8.320;2024-01-25T13:11:32;0.47;;;0.47;;
12846;SDS011;6492;48.128;8.320;2024-01-25T13:20:01;0.60;;;0.60;;
12846;SDS011;6492;48.128;8.320;2024-01-25T13:24:05;0.80;;;0.70;;
12846;SDS011;6492;48.128;8.320;2024-01-25T13:28:11;1.10;;;1.10;;
12846;SDS011;6492;48.128;8.320;2024-01-25T13:32:15;0.60;;;0.60;;
12846;SDS011;6492;48.128;8.320;2024-01-25T13:36:20;1.13;;;0.90;;
12846;SDS011;6492;48.128;8.320;2024-01-25T13:40:21;0.70;;;0.70;;
12846;SDS011;6492;48.128;8.320;2024-01-25T13:44:25;0.80;;;0.80;;
12846;SDS011;6492;48.128;8.320;2024-01-25T13:48:26;0.97;;;0.97;;
12846;SDS011;6492;48.128;8.320;2024-01-25T13:52:34;1.27;;;0.93;;
12846;SDS011;6492;48.128;8.320;2024-01-25T13:56:36;1.40;;;1.20;;
12846;SDS011;6492;48.128;8.320;2024-01-25T14:00:41;0.83;;;0.83;;
12846;SDS011;6492;48.128;8.320;2024-01-25T14:04:43;1.37;;;0.67;;
12846;SDS011;6492;48.128;8.320;2024-01-25T14:08:44;0.63;;;0.63;;
12846;SDS011;6492;48.128;8.320;2024-01-25T14:12:46;0.77;;;0.70;;
12846;SDS011;6492;48.128;8.320;2024-01-25T14:16:49;0.90;;;0.90;;
12846;SDS011;6492;48.128;8.320;2024-01-25T14:20:57;1.00;;;0.83;;
12846;SDS011;6492;48.128;8.320;2024-01-25T14:24:59;1.03;;;1.00;;
12846;SDS011;6492;48.128;8.320;2024-01-25T14:29:01;1.10;;;1.10;;
12846;SDS011;6492;48.128;8.320;2024-01-25T14:33:04;1.10;;;1.10;;
12846;SDS011;6492;48.128;8.320;2024-01-25T14:37:06;0.80;;;0.80;;
12846;SDS011;6492;48.128;8.320;2024-01-25T14:41:08;1.10;;;0.90;;
12846;SDS011;6492;48.128;8.320;2024-01-25T14:45:10;0.93;;;0.90;;
12846;SDS011;6492;48.128;8.320;2024-01-25T14:49:13;1.20;;;1.10;;
12846;SDS011;6492;48.128;8.320;2024-01-25T14:53:15;1.10;;;1.00;;
12846;SDS011;6492;48.128;8.320;2024-01-25T14:57:18;2.50;;;1.00;;
12846;SDS011;6492;48.128;8.320;2024-01-25T15:01:20;0.90;;;0.87;;
12846;SDS011;6492;48.128;8.320;2024-01-25T15:05:30;1.33;;;1.23;;
12846;SDS011;6492;48.128;8.320;2024-01-25T15:09:32;0.93;;;0.90;;
12846;SDS011;6492;48.128;8.320;2024-01-25T15:13:33;1.30;;;1.10;;
12846;SDS011;6492;48.128;8.320;2024-01-25T15:17:35;1.53;;;1.43;;
12846;SDS011;6492;48.128;8.320;2024-01-25T15:21:38;1.50;;;1.33;;
12846;SDS011;6492;48.128;8.320;2024-01-25T15:25:40;2.07;;;1.50;;
12846;SDS011;6492;48.128;8.320;2024-01-25T15:29:42;2.47;;;1.50;;
12846;SDS011;6492;48.128;8.320;2024-01-25T15:33:44;2.07;;;1.87;;
12846;SDS011;6492;48.128;8.320;2024-01-25T15:37:47;5.10;;;4.70;;
12846;SDS011;6492;48.128;8.320;2024-01-25T15:41:49;2.40;;;2.20;;
12846;SDS011;6492;48.128;8.320;2024-01-25T15:45:53;2.33;;;2.13;;
12846;SDS011;6492;48.128;8.320;2024-01-25T15:49:55;3.20;;;2.87;;
12846;SDS011;6492;48.128;8.320;2024-01-25T15:53:59;4.40;;;3.90;;
12846;SDS011;6492;48.128;8.320;2024-01-25T15:58:01;6.70;;;6.00;;
12846;SDS011;6492;48.128;8.320;2024-01-25T16:02:04;8.87;;;6.23;;
12846;SDS011;6492;48.128;8.320;2024-01-25T16:06:06;5.80;;;5.07;;
12846;SDS011;6492;48.128;8.320;2024-01-25T16:10:12;7.30;;;6.60;;
12846;SDS011;6492;48.128;8.320;2024-01-25T16:14:13;7.80;;;4.47;;
12846;SDS011;6492;48.128;8.320;2024-01-25T16:18:20;6.40;;;5.80;;
12846;SDS011;6492;48.128;8.320;2024-01-25T16:22:22;5.87;;;5.30;;
12846;SDS011;6492;48.128;8.320;2024-01-25T16:26:25;3.20;;;2.90;;
12846;SDS011;6492;48.128;8.320;2024-01-25T16:30:28;5.80;;;4.10;;
12846;SDS011;6492;48.128;8.320;2024-01-25T16:34:30;2.80;;;2.60;;
12846;SDS011;6492;48.128;8.320;2024-01-25T16:38:31;4.73;;;3.30;;
12846;SDS011;6492;48.128;8.320;2024-01-25T16:42:35;2.13;;;1.93;;
12846;SDS011;6492;48.128;8.320;2024-01-25T16:46:36;1.60;;;1.50;;
12846;SDS011;6492;48.128;8.320;2024-01-25T16:50:38;1.60;;;1.50;;
12846;SDS011;6492;48.128;8.320;2024-01-25T16:54:40;1.70;;;1.60;;
12846;SDS011;6492;48.128;8.320;2024-01-25T16:58:52;2.50;;;2.30;;
12846;SDS011;6492;48.128;8.320;2024-01-25T17:07:01;5.17;;;4.40;;
12846;SDS011;6492;48.128;8.320;2024-01-25T17:11:03;4.87;;;3.83;;
12846;SDS011;6492;48.128;8.320;2024-01-25T17:15:06;2.63;;;2.43;;
12846;SDS011;6492;48.128;8.320;2024-01-25T17:19:08;2.43;;;2.20;;
12846;SDS011;6492;48.128;8.320;2024-01-25T17:23:13;3.73;;;3.43;;
12846;SDS011;6492;48.128;8.320;2024-01-25T17:27:16;4.83;;;4.43;;
12846;SDS011;6492;48.128;8.320;2024-01-25T17:31:20;2.57;;;2.37;;
12846;SDS011;6492;48.128;8.320;2024-01-25T17:35:22;3.20;;;2.90;;
12846;SDS011;6492;48.128;8.320;2024-01-25T17:39:24;3.80;;;3.23;;
12846;SDS011;6492;48.128;8.320;2024-01-25T17:43:25;9.47;;;8.57;;
12846;SDS011;6492;48.128;8.320;2024-01-25T17:47:34;3.43;;;3.13;;
12846;SDS011;6492;48.128;8.320;2024-01-25T17:51:39;2.70;;;2.50;;
12846;SDS011;6492;48.128;8.320;2024-01-25T17:55:41;3.10;;;2.90;;
12846;SDS011;6492;48.128;8.320;2024-01-25T17:59:45;4.23;;;3.83;;
12846;SDS011;6492;48.128;8.320;2024-01-25T18:03:48;4.77;;;4.37;;
12846;SDS011;6492;48.128;8.320;2024-01-25T18:07:50;3.77;;;3.47;;
12846;SDS011;6492;48.128;8.320;2024-01-25T18:11:52;5.00;;;4.50;;
12846;SDS011;6492;48.128;8.320;2024-01-25T18:15:54;4.83;;;4.43;;
12846;SDS011;6492;48.128;8.320;2024-01-25T18:20:05;4.93;;;4.23;;
12846;SDS011;6492;48.128;8.320;2024-01-25T18:24:09;4.43;;;3.57;;
12846;SDS011;6492;48.128;8.320;2024-01-25T18:28:11;3.27;;;3.00;;
12846;SDS011;6492;48.128;8.320;2024-01-25T18:32:15;3.03;;;2.83;;
12846;SDS011;6492;48.128;8.320;2024-01-25T18:36:18;2.43;;;2.23;;
12846;SDS011;6492;48.128;8.320;2024-01-25T18:40:20;2.70;;;2.50;;
12846;SDS011;6492;48.128;8.320;2024-01-25T18:44:40;4.43;;;4.03;;
12846;SDS011;6492;48.128;8.320;2024-01-25T18:48:42;4.70;;;4.30;;
12846;SDS011;6492;48.128;8.320;2024-01-25T18:52:45;3.60;;;3.30;;
12846;SDS011;6492;48.128;8.320;2024-01-25T18:56:47;2.73;;;2.53;;
12846;SDS011;6492;48.128;8.320;2024-01-25T19:00:49;3.60;;;3.30;;
12846;SDS011;6492;48.128;8.320;2024-01-25T19:04:51;3.33;;;3.03;;
12846;SDS011;6492;48.128;8.320;2024-01-25T19:08:55;3.70;;;3.40;;
12846;SDS011;6492;48.128;8.320;2024-01-25T19:12:57;5.15;;;4.20;;
12846;SDS011;6492;48.128;8.320;2024-01-25T19:16:59;6.13;;;5.20;;
12846;SDS011;6492;48.128;8.320;2024-01-25T19:21:03;3.70;;;3.40;;
12846;SDS011;6492;48.128;8.320;2024-01-25T19:25:07;5.47;;;3.93;;
12846;SDS011;6492;48.128;8.320;2024-01-25T19:29:09;4.70;;;3.93;;
12846;SDS011;6492;48.128;8.320;2024-01-25T19:33:10;8.90;;;6.37;;
12846;SDS011;6492;48.128;8.320;2024-01-25T19:37:12;9.97;;;8.80;;
12846;SDS011;6492;48.128;8.320;2024-01-25T19:41:17;4.03;;;3.40;;
12846;SDS011;6492;48.128;8.320;2024-01-25T19:45:19;1.40;;;1.30;;
12846;SDS011;6492;48.128;8.320;2024-01-25T19:49:21;1.00;;;1.00;;
12846;SDS011;6492;48.128;8.320;2024-01-25T19:53:22;0.80;;;0.77;;
12846;SDS011;6492;48.128;8.320;2024-01-25T19:57:26;0.60;;;0.60;;
12846;SDS011;6492;48.128;8.320;2024-01-25T20:01:29;6.97;;;4.80;;
12846;SDS011;6492;48.128;8.320;2024-01-25T20:05:32;2.93;;;1.47;;
12846;SDS011;6492;48.128;8.320;2024-01-25T20:09:34;1.90;;;1.30;;
12846;SDS011;6492;48.128;8.320;2024-01-25T20:13:37;1.43;;;1.33;;
12846;SDS011;6492;48.128;8.320;2024-01-25T20:22:01;2.23;;;1.17;;
12846;SDS011;6492;48.128;8.320;2024-01-25T20:26:04;4.87;;;3.37;;
12846;SDS011;6492;48.128;8.320;2024-01-25T20:30:08;8.70;;;5.47;;
12846;SDS011;6492;48.128;8.320;2024-01-25T20:34:10;10.77;;;7.40;;
12846;SDS011;6492;48.128;8.320;2024-01-25T20:38:12;6.43;;;4.20;;
12846;SDS011;6492;48.128;8.320;2024-01-25T20:42:14;5.13;;;3.40;;
12846;SDS011;6492;48.128;8.320;2024-01-25T20:46:17;1.23;;;1.13;;
12846;SDS011;6492;48.128;8.320;2024-01-25T20:50:19;1.70;;;1.27;;
12846;SDS011;6492;48.128;8.320;2024-01-25T20:54:21;2.70;;;1.90;;
12846;SDS011;6492;48.128;8.320;2024-01-25T20:58:22;2.03;;;1.70;;
12846;SDS011;6492;48.128;8.320;2024-01-25T21:06:34;1.30;;;1.10;;
12846;SDS011;6492;48.128;8.320;2024-01-25T21:10:37;2.53;;;1.60;;
12846;SDS011;6492;48.128;8.320;2024-01-25T21:14:39;1.70;;;1.40;;
12846;SDS011;6492;48.128;8.320;2024-01-25T21:18:42;1.80;;;1.37;;
12846;SDS011;6492;48.128;8.320;2024-01-25T21:22:44;1.63;;;1.53;;
12846;SDS011;6492;48.128;8.320;2024-01-25T21:26:47;2.10;;;1.90;;
12846;SDS011;6492;48.128;8.320;2024-01-25T21:30:49;1.80;;;1.70;;
12846;SDS011;6492;48.128;8.320;2024-01-25T21:34:52;0.90;;;0.90;;
12846;SDS011;6492;48.128;8.320;2024-01-25T21:39:02;1.23;;;1.13;;
12846;SDS011;6492;48.128;8.320;2024-01-25T21:43:04;1.07;;;1.00;;
12846;SDS011;6492;48.128;8.320;2024-01-25T21:47:05;0.70;;;0.70;;
12846;SDS011;6492;48.128;8.320;2024-01-25T21:51:10;2.00;;;1.20;;
12846;SDS011;6492;48.128;8.320;2024-01-25T21:55:11;1.97;;;1.13;;
12846;SDS011;6492;48.128;8.320;2024-01-25T21:59:17;2.23;;;1.40;;
12846;SDS011;6492;48.128;8.320;2024-01-25T22:03:19;1.20;;;1.10;;
12846;SDS011;6492;48.128;8.320;2024-01-25T22:07:22;3.33;;;1.83;;
12846;SDS011;6492;48.128;8.320;2024-01-25T22:11:24;2.60;;;1.50;;
12846;SDS011;6492;48.128;8.320;2024-01-25T22:15:26;1.50;;;1.20;;
12846;SDS011;6492;48.128;8.320;2024-01-25T22:19:28;1.10;;;1.10;;
12846;SDS011;6492;48.128;8.320;2024-01-25T22:23:31;1.50;;;1.40;;
12846;SDS011;6492;48.128;8.320;2024-01-25T22:27:33;1.97;;;1.60;;
12846;SDS011;6492;48.128;8.320;2024-01-25T22:31:35;0.93;;;0.93;;
12846;SDS011;6492;48.128;8.320;2024-01-25T22:35:36;2.83;;;1.40;;
12846;SDS011;6492;48.128;8.320;2024-01-25T22:39:39;2.63;;;1.47;;
12846;SDS011;6492;48.128;8.320;2024-01-25T22:43:41;1.33;;;1.23;;
12846;SDS011;6492;48.128;8.320;2024-01-25T22:47:43;1.50;;;1.33;;
12846;SDS011;6492;48.128;8.320;2024-01-25T22:51:45;1.13;;;1.03;;
12846;SDS011;6492;48.128;8.320;2024-01-25T22:55:48;1.20;;;1.10;;
12846;SDS011;6492;48.128;8.320;2024-01-25T22:59:51;0.93;;;0.90;;
12846;SDS011;6492;48.128;8.320;2024-01-25T23:03:52;1.37;;;1.17;;
12846;SDS011;6492;48.128;8.320;2024-01-25T23:07:54;1.17;;;1.10;;
12846;SDS011;6492;48.128;8.320;2024-01-25T23:11:57;1.70;;;1.37;;
12846;SDS011;6492;48.128;8.320;2024-01-25T23:15:59;2.47;;;1.53;;
12846;SDS011;6492;48.128;8.320;2024-01-25T23:20:01;2.07;;;1.10;;
12846;SDS011;6492;48.128;8.320;2024-01-25T23:24:04;1.03;;;1.03;;
12846;SDS011;6492;48.128;8.320;2024-01-25T23:28:07;0.80;;;0.80;;
12846;SDS011;6492;48.128;8.320;2024-01-25T23:32:09;0.70;;;0.70;;
12846;SDS011;6492;48.128;8.320;2024-01-25T23:36:11;1.80;;;0.77;;
12846;SDS011;6492;48.128;8.320;2024-01-25T23:40:13;1.10;;;1.00;;
12846;SDS011;6492;48.128;8.320;2024-01-25T23:44:26;0.90;;;0.90;;
12846;SDS011;6492;48.128;8.320;2024-01-25T23:48:28;1.07;;;1.03;;
12846;SDS011;6492;48.128;8.320;2024-01-25T23:52:30;0.93;;;0.87;;
12846;SDS011;6492;48.128;8.320;2024-01-25T23:56:32;0.90;;;0.90;;
